sensor_id;sensor_type;location;lat;lon;timestamp;temperature;humidity
58519;DHT22;44310;48.106;12.008;2022-07-23T19:13:24;22.00;91.10
58519;DHT22;44310;48.106;12.008;2022-07-23T19:15:52;22.20;91.50
58519;DHT22;44310;48.106;12.008;2022-07-23T19:18:19;22.30;91.90
58519;DHT22;44310;48.106;12.008;2022-07-23T19:20:47;22.40;91.30
58519;DHT22;44310;48.106;12.008;2022-07-23T19:23:14;22.40;91.10
58519;DHT22;44310;48.106;12.008;2022-07-23T19:25:41;22.50;92.10
58519;DHT22;44310;48.106;12.008;2022-07-23T19:28:09;22.60;91.80
58519;DHT22;44310;48.106;12.008;2022-07-23T19:30:36;22.70;92.30
58519;DHT22;44310;48.106;12.008;2022-07-23T19:33:04;22.70;92.20
58519;DHT22;44310;48.106;12.008;2022-07-23T19:35:31;22.70;92.10
58519;DHT22;44310;48.106;12.008;2022-07-23T19:37:59;22.70;91.20
58519;DHT22;44310;48.106;12.008;2022-07-23T19:40:27;22.60;91.00
58519;DHT22;44310;48.106;12.008;2022-07-23T19:42:54;22.60;90.60
58519;DHT22;44310;48.106;12.008;2022-07-23T19:45:22;22.50;90.70
58519;DHT22;44310;48.106;12.008;2022-07-23T19:47:49;22.50;90.40
58519;DHT22;44310;48.106;12.008;2022-07-23T19:50:22;22.40;90.30
58519;DHT22;44310;48.106;12.008;2022-07-23T19:52:51;22.40;90.40
58519;DHT22;44310;48.106;12.008;2022-07-23T19:55:21;22.40;90.70
58519;DHT22;44310;48.106;12.008;2022-07-23T19:57:49;22.50;90.60
58519;DHT22;44310;48.106;12.008;2022-07-23T20:00:16;22.50;90.80
58519;DHT22;44310;48.106;12.008;2022-07-23T20:02:44;22.60;90.60
58519;DHT22;44310;48.106;12.008;2022-07-23T20:05:21;22.60;90.40
58519;DHT22;44310;48.106;12.008;2022-07-23T20:07:48;22.70;90.50
58519;DHT22;44310;48.106;12.008;2022-07-23T20:10:16;22.60;89.80
58519;DHT22;44310;48.106;12.008;2022-07-23T20:12:46;22.60;89.80
58519;DHT22;44310;48.106;12.008;2022-07-23T20:15:14;22.60;89.60
58519;DHT22;44310;48.106;12.008;2022-07-23T20:17:41;22.60;89.70
58519;DHT22;44310;48.106;12.008;2022-07-23T20:20:09;22.60;90.00
58519;DHT22;44310;48.106;12.008;2022-07-23T20:22:37;22.60;89.00
58519;DHT22;44310;48.106;12.008;2022-07-23T20:25:08;22.60;88.80
58519;DHT22;44310;48.106;12.008;2022-07-23T20:27:36;22.50;89.10
58519;DHT22;44310;48.106;12.008;2022-07-23T20:30:05;22.50;89.00
58519;DHT22;44310;48.106;12.008;2022-07-23T20:32:32;22.50;89.10
58519;DHT22;44310;48.106;12.008;2022-07-23T20:35:00;22.40;89.00
58519;DHT22;44310;48.106;12.008;2022-07-23T20:37:28;22.40;88.70
58519;DHT22;44310;48.106;12.008;2022-07-23T20:39:55;22.40;88.40
58519;DHT22;44310;48.106;12.008;2022-07-23T20:42:23;22.40;88.90
58519;DHT22;44310;48.106;12.008;2022-07-23T20:44:51;22.40;88.80
58519;DHT22;44310;48.106;12.008;2022-07-23T20:47:21;22.30;88.00
58519;DHT22;44310;48.106;12.008;2022-07-23T20:49:51;22.30;88.80
58519;DHT22;44310;48.106;12.008;2022-07-23T20:52:23;22.40;89.00
58519;DHT22;44310;48.106;12.008;2022-07-23T20:54:52;22.50;89.00
58519;DHT22;44310;48.106;12.008;2022-07-23T20:57:20;22.50;88.60
58519;DHT22;44310;48.106;12.008;2022-07-23T20:59:48;22.50;88.60
58519;DHT22;44310;48.106;12.008;2022-07-23T21:02:16;22.60;88.50
58519;DHT22;44310;48.106;12.008;2022-07-23T21:04:46;22.60;88.60
58519;DHT22;44310;48.106;12.008;2022-07-23T21:07:17;22.60;87.70
58519;DHT22;44310;48.106;12.008;2022-07-23T21:09:47;22.50;88.30
58519;DHT22;44310;48.106;12.008;2022-07-23T21:12:19;22.50;88.00
58519;DHT22;44310;48.106;12.008;2022-07-23T21:14:56;22.50;88.10
58519;DHT22;44310;48.106;12.008;2022-07-23T21:17:27;22.50;88.40
58519;DHT22;44310;48.106;12.008;2022-07-23T21:19:54;22.50;88.50
58519;DHT22;44310;48.106;12.008;2022-07-23T21:22:22;22.50;88.30
58519;DHT22;44310;48.106;12.008;2022-07-23T21:24:49;22.50;88.20
58519;DHT22;44310;48.106;12.008;2022-07-23T21:27:17;22.50;88.10
58519;DHT22;44310;48.106;12.008;2022-07-23T21:29:44;22.50;88.00
58519;DHT22;44310;48.106;12.008;2022-07-23T21:32:11;22.50;88.40
58519;DHT22;44310;48.106;12.008;2022-07-23T21:34:38;22.50;88.20
58519;DHT22;44310;48.106;12.008;2022-07-23T21:37:06;22.50;88.70
58519;DHT22;44310;48.106;12.008;2022-07-23T21:39:33;22.50;88.30
58519;DHT22;44310;48.106;12.008;2022-07-23T21:42:01;22.50;88.40
58519;DHT22;44310;48.106;12.008;2022-07-23T21:44:28;22.40;87.90
58519;DHT22;44310;48.106;12.008;2022-07-23T21:46:55;22.40;88.10
58519;DHT22;44310;48.106;12.008;2022-07-23T21:49:23;22.40;88.60
58519;DHT22;44310;48.106;12.008;2022-07-23T21:51:50;22.40;88.80
58519;DHT22;44310;48.106;12.008;2022-07-23T21:54:17;22.50;88.60
58519;DHT22;44310;48.106;12.008;2022-07-23T21:56:46;22.50;88.70
58519;DHT22;44310;48.106;12.008;2022-07-23T21:59:14;22.50;88.30
58519;DHT22;44310;48.106;12.008;2022-07-23T22:01:42;22.40;88.70
58519;DHT22;44310;48.106;12.008;2022-07-23T22:04:10;22.40;88.60
58519;DHT22;44310;48.106;12.008;2022-07-23T22:06:37;22.50;88.70
58519;DHT22;44310;48.106;12.008;2022-07-23T22:09:07;22.50;88.70
58519;DHT22;44310;48.106;12.008;2022-07-23T22:11:35;22.50;88.40
58519;DHT22;44310;48.106;12.008;2022-07-23T22:14:02;22.50;88.40
58519;DHT22;44310;48.106;12.008;2022-07-23T22:16:30;22.50;88.00
58519;DHT22;44310;48.106;12.008;2022-07-23T22:18:58;22.50;88.30
58519;DHT22;44310;48.106;12.008;2022-07-23T22:21:25;22.40;88.30
58519;DHT22;44310;48.106;12.008;2022-07-23T22:24:10;22.40;88.30
58519;DHT22;44310;48.106;12.008;2022-07-23T22:26:37;22.40;87.90
58519;DHT22;44310;48.106;12.008;2022-07-23T22:29:05;22.40;88.10
58519;DHT22;44310;48.106;12.008;2022-07-23T22:31:33;22.40;88.00
58519;DHT22;44310;48.106;12.008;2022-07-23T22:34:00;22.40;87.80
58519;DHT22;44310;48.106;12.008;2022-07-23T22:36:28;22.40;88.30
58519;DHT22;44310;48.106;12.008;2022-07-23T22:38:56;22.50;88.30
58519;DHT22;44310;48.106;12.008;2022-07-23T22:41:23;22.50;87.50
58519;DHT22;44310;48.106;12.008;2022-07-23T22:43:50;22.50;87.90
58519;DHT22;44310;48.106;12.008;2022-07-23T22:46:18;22.40;87.80
58519;DHT22;44310;48.106;12.008;2022-07-23T22:48:45;22.40;88.00
58519;DHT22;44310;48.106;12.008;2022-07-23T22:51:14;22.40;87.60
58519;DHT22;44310;48.106;12.008;2022-07-23T22:53:46;22.40;88.00
58519;DHT22;44310;48.106;12.008;2022-07-23T22:56:13;22.40;88.40
58519;DHT22;44310;48.106;12.008;2022-07-23T22:58:41;22.50;88.60
58519;DHT22;44310;48.106;12.008;2022-07-23T23:01:08;22.60;88.60
58519;DHT22;44310;48.106;12.008;2022-07-23T23:03:35;22.70;88.60
58519;DHT22;44310;48.106;12.008;2022-07-23T23:06:03;22.80;88.60
58519;DHT22;44310;48.106;12.008;2022-07-23T23:08:30;22.80;88.40
58519;DHT22;44310;48.106;12.008;2022-07-23T23:10:58;22.90;88.60
58519;DHT22;44310;48.106;12.008;2022-07-23T23:13:25;22.90;88.90
58519;DHT22;44310;48.106;12.008;2022-07-23T23:15:52;22.90;89.90
58519;DHT22;44310;48.106;12.008;2022-07-23T23:18:20;23.00;89.50
58519;DHT22;44310;48.106;12.008;2022-07-23T23:20:47;23.00;89.60
58519;DHT22;44310;48.106;12.008;2022-07-23T23:23:14;23.10;90.00
58519;DHT22;44310;48.106;12.008;2022-07-23T23:25:42;23.10;90.10
58519;DHT22;44310;48.106;12.008;2022-07-23T23:28:09;23.10;90.20
58519;DHT22;44310;48.106;12.008;2022-07-23T23:30:36;23.10;90.20
58519;DHT22;44310;48.106;12.008;2022-07-23T23:33:04;23.00;90.30
58519;DHT22;44310;48.106;12.008;2022-07-23T23:35:32;23.10;90.40
58519;DHT22;44310;48.106;12.008;2022-07-23T23:38:00;23.10;90.50
58519;DHT22;44310;48.106;12.008;2022-07-23T23:40:27;23.10;90.50
58519;DHT22;44310;48.106;12.008;2022-07-23T23:42:54;23.10;90.60
58519;DHT22;44310;48.106;12.008;2022-07-23T23:45:22;23.10;90.60
58519;DHT22;44310;48.106;12.008;2022-07-23T23:47:49;23.10;90.60
58519;DHT22;44310;48.106;12.008;2022-07-23T23:50:16;23.10;90.70
58519;DHT22;44310;48.106;12.008;2022-07-23T23:52:44;23.10;91.00
58519;DHT22;44310;48.106;12.008;2022-07-23T23:55:11;23.10;90.70
58519;DHT22;44310;48.106;12.008;2022-07-23T23:57:38;23.10;90.70
